Time;durP1;ratioP1;P1;durP2;ratioP2;P2;SDS_P1;SDS_P2;PMS_P1;PMS_P2;Temp;Humidity;BMP_temperature;BMP_pressure;BME280_temperature;BME280_humidity;BME280_pressure;Samples;Min_cycle;Max_cycle;Signal;HPM_P1;HPM_P2
2021/07/17 00:00:45;;;;;;;18.27;10.50;;;21.00;89.30;;;;;;5079560;28;20448;-74
2021/07/17 00:03:12;;;;;;;18.57;9.57;;;21.00;89.30;;;;;;5078415;28;20456;-74
2021/07/17 00:05:39;;;;;;;22.73;10.50;;;21.00;89.60;;;;;;5076355;28;20472;-74
2021/07/17 00:08:06;;;;;;;22.67;10.23;;;21.00;89.90;;;;;;5076241;28;20445;-74
2021/07/17 00:10:38;;;;;;;19.70;10.43;;;21.00;90.10;;;;;;5076326;28;20421;-74
2021/07/17 00:13:06;;;;;;;17.40;9.60;;;20.90;90.10;;;;;;5076064;28;20436;-74
2021/07/17 00:15:33;;;;;;;23.80;11.10;;;20.90;90.10;;;;;;5076146;28;20500;-74
2021/07/17 00:18:00;;;;;;;19.57;10.77;;;20.90;90.00;;;;;;5076153;28;20460;-74
2021/07/17 00:20:27;;;;;;;22.57;10.80;;;20.90;89.80;;;;;;5076159;28;20464;-74
2021/07/17 00:22:54;;;;;;;24.00;11.60;;;20.90;90.00;;;;;;5076178;28;20441;-74
2021/07/17 00:25:22;;;;;;;26.67;12.60;;;20.90;90.00;;;;;;5075895;28;20464;-74
2021/07/17 00:27:51;;;;;;;22.87;11.33;;;20.80;90.00;;;;;;5076062;28;20536;-74
2021/07/17 00:30:19;;;;;;;21.57;11.10;;;20.80;90.10;;;;;;5076249;28;20567;-74
2021/07/17 00:32:46;;;;;;;19.40;10.57;;;20.80;90.10;;;;;;5075763;28;20902;-74
2021/07/17 00:35:14;;;;;;;24.57;11.83;;;20.80;90.10;;;;;;5075679;28;20872;-74
2021/07/17 00:37:40;;;;;;;26.67;12.67;;;20.80;90.20;;;;;;5075664;28;20448;-74
2021/07/17 00:40:09;;;;;;;18.90;11.90;;;20.80;90.20;;;;;;5075399;28;20441;-75
2021/07/17 00:42:36;;;;;;;18.40;10.47;;;20.80;90.40;;;;;;5075829;28;20472;-75
2021/07/17 00:45:05;;;;;;;23.67;10.97;;;20.80;90.40;;;;;;5075432;28;20471;-75
2021/07/17 00:47:33;;;;;;;19.07;10.90;;;20.80;90.50;;;;;;5075514;28;20436;-74
2021/07/17 00:50:00;;;;;;;21.30;11.13;;;20.80;90.50;;;;;;5075143;28;20489;-74
2021/07/17 00:52:27;;;;;;;23.57;12.00;;;20.80;90.50;;;;;;5075457;28;20449;-74
2021/07/17 00:54:54;;;;;;;24.20;10.60;;;20.80;90.60;;;;;;5075402;28;20465;-75
2021/07/17 00:57:22;;;;;;;23.20;11.50;;;20.80;90.50;;;;;;5075502;28;20444;-74
2021/07/17 00:59:52;;;;;;;17.87;11.63;;;20.80;90.40;;;;;;5075295;28;20441;-74
2021/07/17 01:02:23;;;;;;;17.20;10.97;;;20.80;90.30;;;;;;5075271;28;20504;-74
2021/07/17 01:04:50;;;;;;;19.67;10.80;;;20.80;90.20;;;;;;5075164;28;20468;-75
2021/07/17 01:07:18;;;;;;;20.70;12.07;;;20.80;90.20;;;;;;5075013;28;20957;-74
2021/07/17 01:09:45;;;;;;;28.40;11.83;;;20.80;90.20;;;;;;5075050;28;21012;-74
2021/07/17 01:12:12;;;;;;;25.30;13.27;;;20.80;90.20;;;;;;5075070;28;20471;-74
2021/07/17 01:14:40;;;;;;;18.67;12.10;;;20.80;90.30;;;;;;5074539;28;20460;-74
2021/07/17 01:17:06;;;;;;;21.80;11.60;;;20.70;90.30;;;;;;5074861;28;20510;-74
2021/07/17 01:19:34;;;;;;;18.33;12.27;;;20.70;90.40;;;;;;5074966;28;20795;-74
2021/07/17 01:22:03;;;;;;;27.00;13.30;;;20.70;90.40;;;;;;5075019;28;20456;-74
2021/07/17 01:24:30;;;;;;;25.13;12.13;;;20.70;90.50;;;;;;5074752;28;20471;-74
2021/07/17 01:26:57;;;;;;;23.67;12.00;;;20.70;90.50;;;;;;5074759;28;20445;-74
2021/07/17 01:29:24;;;;;;;21.73;11.50;;;20.70;90.40;;;;;;5074680;28;20477;-74
2021/07/17 01:31:51;;;;;;;21.93;12.07;;;20.70;90.50;;;;;;5074681;28;20453;-74
2021/07/17 01:34:18;;;;;;;25.70;12.50;;;20.60;90.40;;;;;;5074439;28;20445;-75
2021/07/17 01:36:46;;;;;;;22.30;12.70;;;20.60;90.40;;;;;;5074701;28;20441;-74
2021/07/17 01:39:14;;;;;;;22.70;11.83;;;20.60;90.40;;;;;;5074429;28;20463;-74
2021/07/17 01:41:41;;;;;;;24.83;12.87;;;20.60;90.50;;;;;;5074471;28;20467;-74
2021/07/17 01:44:08;;;;;;;18.97;11.30;;;20.60;90.50;;;;;;5074068;28;20807;-75
2021/07/17 01:46:34;;;;;;;22.43;12.60;;;20.60;90.60;;;;;;5074329;28;20445;-74
2021/07/17 01:49:01;;;;;;;30.73;13.47;;;20.60;90.60;;;;;;5074744;28;20476;-74
2021/07/17 01:51:28;;;;;;;26.53;14.20;;;20.60;90.60;;;;;;5074432;28;20440;-74
2021/07/17 01:53:56;;;;;;;22.27;11.70;;;20.60;90.60;;;;;;5074378;28;20432;-74
2021/07/17 01:56:26;;;;;;;22.13;12.47;;;20.60;90.50;;;;;;5074311;28;20461;-74
2021/07/17 01:58:53;;;;;;;27.10;12.77;;;20.50;90.50;;;;;;5074455;28;20433;-74
2021/07/17 02:01:21;;;;;;;28.17;11.67;;;20.50;90.40;;;;;;5074118;28;20544;-74
2021/07/17 02:03:48;;;;;;;25.77;13.50;;;20.50;90.50;;;;;;5073738;28;20939;-74
2021/07/17 02:06:24;;;;;;;20.60;12.60;;;20.50;90.60;;;;;;5074053;28;20494;-74
2021/07/17 02:08:52;;;;;;;27.47;12.67;;;20.50;90.70;;;;;;5073645;28;20428;-74
2021/07/17 02:11:18;;;;;;;23.03;12.97;;;20.50;90.60;;;;;;5074202;28;20444;-74
2021/07/17 02:13:48;;;;;;;20.70;11.73;;;20.40;90.60;;;;;;5073983;28;20796;-74
2021/07/17 02:16:15;;;;;;;19.47;12.13;;;20.40;90.70;;;;;;5074050;28;20475;-74
2021/07/17 02:18:44;;;;;;;20.03;11.70;;;20.40;90.80;;;;;;5074029;28;20444;-74
2021/07/17 02:21:11;;;;;;;20.43;12.30;;;20.40;90.90;;;;;;5073856;28;20568;-74
2021/07/17 02:23:38;;;;;;;20.07;12.10;;;20.40;90.90;;;;;;5073669;28;20942;-74
2021/07/17 02:26:06;;;;;;;22.90;12.60;;;20.40;90.90;;;;;;5073211;28;20567;-74
2021/07/17 02:28:33;;;;;;;27.80;12.40;;;20.40;90.90;;;;;;5074057;28;20448;-74
2021/07/17 02:31:03;;;;;;;19.23;13.13;;;20.40;91.00;;;;;;5073894;28;20476;-74
2021/07/17 02:33:29;;;;;;;22.67;11.83;;;20.40;91.00;;;;;;5073668;28;20931;-74
2021/07/17 02:35:56;;;;;;;27.40;12.80;;;20.40;91.00;;;;;;5073867;28;20464;-74
2021/07/17 02:38:23;;;;;;;21.00;12.03;;;20.40;90.90;;;;;;5073571;28;20841;-74
2021/07/17 02:40:50;;;;;;;23.90;12.50;;;20.40;90.90;;;;;;5074132;28;20444;-75
2021/07/17 02:43:17;;;;;;;21.37;12.93;;;20.40;90.90;;;;;;5073800;28;20456;-74
2021/07/17 02:45:43;;;;;;;19.00;13.60;;;20.40;90.80;;;;;;5073598;28;20823;-74
2021/07/17 02:48:12;;;;;;;25.17;12.30;;;20.40;90.90;;;;;;5073747;28;20448;-74
2021/07/17 02:50:38;;;;;;;25.27;13.60;;;20.40;91.10;;;;;;5073642;28;20488;-74
2021/07/17 02:53:06;;;;;;;23.03;12.77;;;20.30;91.10;;;;;;5074184;28;20447;-74
2021/07/17 02:55:33;;;;;;;23.60;13.60;;;20.30;91.10;;;;;;5073872;28;20460;-74
2021/07/17 02:58:00;;;;;;;25.50;14.23;;;20.30;91.20;;;;;;5073579;28;20975;-74
2021/07/17 03:00:32;;;;;;;19.53;11.87;;;20.30;91.40;;;;;;5073786;28;20456;-74
2021/07/17 03:02:59;;;;;;;19.80;11.83;;;20.30;91.40;;;;;;5073371;28;20486;-74
2021/07/17 03:05:27;;;;;;;24.43;13.77;;;20.30;91.30;;;;;;5073400;28;20491;-74
2021/07/17 03:07:54;;;;;;;26.90;12.30;;;20.30;91.30;;;;;;5073648;28;20451;-74
2021/07/17 03:10:20;;;;;;;24.03;12.90;;;20.20;91.40;;;;;;5073957;28;20480;-74
2021/07/17 03:12:47;;;;;;;22.50;13.70;;;20.20;91.40;;;;;;5073491;28;20449;-74
2021/07/17 03:15:14;;;;;;;25.23;12.70;;;20.20;91.50;;;;;;5073537;28;20468;-74
2021/07/17 03:17:41;;;;;;;18.43;12.73;;;20.20;91.60;;;;;;5073406;28;20448;-75
2021/07/17 03:20:08;;;;;;;16.77;12.43;;;20.20;91.70;;;;;;5073402;28;20453;-74
2021/07/17 03:22:36;;;;;;;26.53;13.07;;;20.20;91.60;;;;;;5073129;28;20444;-74
2021/07/17 03:25:03;;;;;;;34.83;14.83;;;20.20;91.60;;;;;;5073151;28;21003;-74
2021/07/17 03:27:30;;;;;;;26.03;14.43;;;20.20;91.60;;;;;;5073074;28;20973;-74
2021/07/17 03:29:56;;;;;;;23.90;13.73;;;20.20;91.60;;;;;;5073015;28;20476;-74
2021/07/17 03:32:26;;;;;;;22.80;11.60;;;20.20;91.60;;;;;;5073165;28;20449;-74
2021/07/17 03:34:53;;;;;;;22.90;12.63;;;20.20;91.70;;;;;;5073324;28;20554;-74
2021/07/17 03:37:19;;;;;;;20.77;12.87;;;20.20;91.80;;;;;;5073121;28;20444;-74
2021/07/17 03:39:48;;;;;;;24.80;13.97;;;20.10;91.80;;;;;;5077080;28;20441;-74
2021/07/17 03:42:14;;;;;;;23.17;13.60;;;20.10;91.80;;;;;;5077105;28;20435;-74
2021/07/17 03:44:41;;;;;;;23.90;13.60;;;20.10;91.90;;;;;;5076865;28;20464;-74
2021/07/17 03:47:08;;;;;;;20.87;12.00;;;20.00;91.90;;;;;;5076928;28;20444;-74
2021/07/17 03:49:35;;;;;;;22.27;12.67;;;20.10;92.10;;;;;;5076292;28;21005;-75
2021/07/17 03:52:01;;;;;;;24.97;13.90;;;20.10;92.20;;;;;;5077112;28;20463;-75
2021/07/17 03:54:28;;;;;;;17.90;13.93;;;20.10;92.10;;;;;;5076493;28;20495;-75
2021/07/17 03:56:56;;;;;;;21.50;13.67;;;20.10;92.20;;;;;;5076622;28;20441;-74
2021/07/17 03:59:23;;;;;;;28.30;14.73;;;20.10;92.10;;;;;;5076870;28;20436;-74
2021/07/17 04:01:51;;;;;;;26.10;12.90;;;20.10;92.20;;;;;;5077033;28;20451;-74
2021/07/17 04:04:18;;;;;;;22.30;13.30;;;20.10;92.10;;;;;;5076867;28;20589;-74
2021/07/17 04:06:45;;;;;;;23.70;13.47;;;20.10;92.10;;;;;;5076801;28;20444;-74
2021/07/17 04:09:12;;;;;;;21.93;13.20;;;20.10;92.20;;;;;;5077507;28;20445;-74
2021/07/17 04:11:38;;;;;;;21.67;13.33;;;20.10;92.10;;;;;;5075933;28;21020;-74
2021/07/17 04:14:06;;;;;;;22.13;12.40;;;20.10;92.20;;;;;;5076444;28;20453;-74
2021/07/17 04:16:33;;;;;;;23.53;12.70;;;20.10;92.10;;;;;;5079245;28;20444;-74
2021/07/17 04:19:00;;;;;;;19.80;13.63;;;20.10;92.20;;;;;;5076457;28;20817;-74
2021/07/17 04:21:27;;;;;;;37.13;14.27;;;20.10;92.30;;;;;;5076449;28;20464;-75
2021/07/17 04:23:53;;;;;;;22.67;14.00;;;20.00;92.20;;;;;;5076164;28;20460;-75
2021/07/17 04:26:20;;;;;;;20.90;12.17;;;20.10;92.70;;;;;;5076062;28;20487;-75
2021/07/17 04:28:47;;;;;;;19.03;12.30;;;20.10;92.40;;;;;;5075917;28;20452;-74
2021/07/17 04:31:15;;;;;;;24.20;12.90;;;20.10;92.40;;;;;;5075730;28;20484;-74
2021/07/17 04:33:42;;;;;;;25.07;12.60;;;20.00;92.30;;;;;;5075836;28;20444;-74
2021/07/17 04:36:10;;;;;;;21.07;12.77;;;20.10;92.30;;;;;;5075611;28;20975;-74
2021/07/17 04:38:37;;;;;;;20.30;13.00;;;20.10;92.30;;;;;;5075956;28;20452;-74
2021/07/17 04:41:04;;;;;;;23.83;12.67;;;20.10;92.30;;;;;;5075972;28;20425;-74
2021/07/17 04:43:31;;;;;;;27.67;14.00;;;20.10;92.20;;;;;;5075488;28;20822;-74
2021/07/17 04:45:57;;;;;;;26.03;12.83;;;20.10;92.20;;;;;;5075516;28;21001;-74
2021/07/17 04:48:25;;;;;;;25.07;13.07;;;20.10;92.10;;;;;;5076127;28;20441;-75
2021/07/17 04:50:52;;;;;;;28.43;13.17;;;20.10;92.10;;;;;;5075058;28;20484;-75
2021/07/17 04:53:19;;;;;;;20.27;12.80;;;20.10;92.20;;;;;;5075612;28;20487;-74
2021/07/17 04:55:46;;;;;;;26.33;13.27;;;20.20;92.20;;;;;;5075351;28;20475;-74
2021/07/17 04:58:13;;;;;;;22.63;12.63;;;20.10;92.10;;;;;;5075296;28;20449;-74
2021/07/17 05:00:40;;;;;;;19.47;11.20;;;20.20;92.10;;;;;;5075338;28;20919;-75
2021/07/17 05:03:07;;;;;;;20.93;12.77;;;20.20;92.00;;;;;;5075838;28;20453;-75
2021/07/17 05:05:35;;;;;;;24.40;12.60;;;20.20;91.90;;;;;;5075200;28;20996;-75
2021/07/17 05:08:02;;;;;;;18.93;11.53;;;20.20;91.90;;;;;;5075260;28;20922;-75
2021/07/17 05:10:29;;;;;;;23.13;12.57;;;20.30;92.00;;;;;;5075069;28;20994;-75
2021/07/17 05:12:56;;;;;;;20.50;12.00;;;20.30;91.90;;;;;;5075320;28;20472;-74
2021/07/17 05:15:22;;;;;;;25.10;12.30;;;20.40;91.90;;;;;;5074944;28;20469;-75
2021/07/17 05:17:49;;;;;;;17.83;11.87;;;20.40;91.90;;;;;;5074779;28;20459;-75
2021/07/17 05:20:17;;;;;;;17.33;11.30;;;20.40;91.60;;;;;;5075137;28;20448;-75
2021/07/17 05:22:45;;;;;;;22.10;12.10;;;20.40;91.40;;;;;;5075202;28;20532;-75
2021/07/17 05:25:12;;;;;;;19.60;11.03;;;20.40;91.50;;;;;;5075018;28;20461;-75
2021/07/17 05:27:39;;;;;;;23.90;10.30;;;20.50;91.50;;;;;;5075583;28;20456;-75
2021/07/17 05:30:10;;;;;;;18.73;11.00;;;20.50;91.40;;;;;;5075348;28;20484;-75
2021/07/17 05:32:37;;;;;;;21.20;10.90;;;20.50;91.50;;;;;;5075095;28;20536;-75
2021/07/17 05:35:05;;;;;;;22.60;11.30;;;20.50;91.40;;;;;;5074651;28;20464;-75
2021/07/17 05:37:32;;;;;;;22.80;10.80;;;20.50;91.20;;;;;;5075046;28;20440;-75
2021/07/17 05:40:00;;;;;;;19.90;12.10;;;20.60;91.10;;;;;;5075167;28;20451;-75
2021/07/17 05:42:27;;;;;;;23.03;11.37;;;20.60;91.00;;;;;;5075878;28;20431;-75
2021/07/17 05:44:53;;;;;;;18.53;10.60;;;20.60;91.10;;;;;;5076046;28;20472;-75
2021/07/17 05:47:20;;;;;;;20.57;11.53;;;20.70;91.10;;;;;;5074605;28;20437;-75
2021/07/17 05:49:47;;;;;;;20.47;10.60;;;20.70;90.80;;;;;;5075107;28;20452;-75
2021/07/17 05:52:14;;;;;;;18.53;10.50;;;20.80;90.80;;;;;;5074617;28;20985;-74
2021/07/17 05:54:41;;;;;;;22.23;10.97;;;20.80;90.50;;;;;;5074636;28;20483;-75
2021/07/17 05:57:09;;;;;;;21.00;11.40;;;20.80;90.50;;;;;;5074755;28;20453;-75
2021/07/17 05:59:36;;;;;;;24.23;12.07;;;20.90;90.50;;;;;;5076273;28;20444;-75
2021/07/17 06:02:03;;;;;;;19.93;11.20;;;20.90;90.30;;;;;;5075014;28;20451;-75
2021/07/17 06:04:30;;;;;;;21.77;11.57;;;20.90;90.40;;;;;;5074598;28;20468;-75
2021/07/17 06:06:57;;;;;;;24.00;11.23;;;21.00;90.40;;;;;;5074168;28;20456;-75
2021/07/17 06:09:24;;;;;;;19.47;10.37;;;21.10;90.30;;;;;;5073651;28;20459;-75
2021/07/17 06:11:51;;;;;;;20.00;11.10;;;21.10;90.20;;;;;;5073929;28;20471;-74
2021/07/17 06:14:19;;;;;;;22.93;10.50;;;21.20;90.20;;;;;;5073889;28;20452;-74
2021/07/17 06:16:46;;;;;;;19.77;11.10;;;21.20;90.10;;;;;;5073788;28;20445;-76
2021/07/17 06:19:13;;;;;;;23.80;11.03;;;21.30;90.40;;;;;;5073696;28;20476;-76
2021/07/17 06:21:39;;;;;;;19.73;10.07;;;21.20;89.50;;;;;;5073750;28;20443;-76
2021/07/17 06:24:06;;;;;;;27.10;11.67;;;21.20;89.20;;;;;;5073619;28;20468;-76
2021/07/17 06:26:33;;;;;;;20.43;11.57;;;21.20;89.00;;;;;;5073651;28;20452;-75
2021/07/17 06:29:00;;;;;;;18.00;9.30;;;21.20;88.80;;;;;;5073239;28;20938;-74
2021/07/17 06:31:28;;;;;;;18.00;10.07;;;21.30;88.60;;;;;;5073334;28;20476;-74
2021/07/17 06:33:55;;;;;;;22.50;11.00;;;21.30;88.30;;;;;;5073572;28;20429;-74
2021/07/17 06:36:21;;;;;;;17.80;10.47;;;21.30;87.90;;;;;;5073142;28;20472;-74
2021/07/17 06:38:48;;;;;;;17.20;10.90;;;21.30;87.50;;;;;;5073205;28;20969;-74
2021/07/17 06:41:15;;;;;;;19.80;10.97;;;21.30;86.90;;;;;;5073491;28;20448;-74
2021/07/17 06:43:42;;;;;;;19.50;10.40;;;21.30;86.80;;;;;;5073150;28;20938;-74
2021/07/17 06:46:09;;;;;;;13.87;11.07;;;21.30;86.90;;;;;;5073040;28;20467;-74
2021/07/17 06:48:37;;;;;;;24.20;11.73;;;21.30;86.70;;;;;;5073436;28;20440;-74
2021/07/17 06:51:03;;;;;;;13.90;10.47;;;21.40;87.00;;;;;;5072929;28;20529;-74
2021/07/17 06:53:30;;;;;;;23.20;11.50;;;21.40;86.50;;;;;;5073432;28;20432;-74
2021/07/17 06:55:57;;;;;;;17.87;11.17;;;21.60;86.40;;;;;;5073259;28;20461;-74
2021/07/17 06:58:23;;;;;;;17.57;12.13;;;21.60;84.80;;;;;;5073124;28;20452;-74
2021/07/17 07:00:50;;;;;;;15.80;10.00;;;21.70;84.50;;;;;;5072963;28;20935;-74
2021/07/17 07:03:17;;;;;;;19.47;12.13;;;21.90;84.30;;;;;;5073145;28;20917;-74
2021/07/17 07:05:45;;;;;;;20.57;12.10;;;22.00;83.70;;;;;;5074294;28;20472;-74
2021/07/17 07:08:12;;;;;;;17.33;10.57;;;22.00;82.80;;;;;;5073270;28;20452;-74
2021/07/17 07:10:38;;;;;;;22.57;11.70;;;22.10;82.50;;;;;;5073127;28;20476;-74
2021/07/17 07:13:10;;;;;;;17.40;10.90;;;22.10;82.60;;;;;;5074550;28;20441;-74
2021/07/17 07:15:37;;;;;;;16.20;10.50;;;22.20;82.40;;;;;;5076823;28;20475;-74
2021/07/17 07:18:04;;;;;;;19.00;10.60;;;22.20;81.70;;;;;;5077116;28;20448;-74
2021/07/17 07:20:31;;;;;;;18.67;10.23;;;22.30;81.50;;;;;;5076678;28;20441;-74
2021/07/17 07:22:59;;;;;;;14.07;10.10;;;22.30;80.40;;;;;;5076669;28;20926;-74
2021/07/17 07:25:26;;;;;;;17.90;12.30;;;22.30;80.60;;;;;;5076511;28;20468;-74
2021/07/17 07:27:53;;;;;;;24.37;12.23;;;22.40;80.10;;;;;;5077227;28;20428;-74
2021/07/17 07:30:20;;;;;;;17.53;11.80;;;22.40;79.50;;;;;;5076587;28;20956;-74
2021/07/17 07:32:49;;;;;;;21.00;12.07;;;22.30;80.10;;;;;;5076742;28;20484;-74
2021/07/17 07:35:16;;;;;;;18.33;9.63;;;22.40;80.40;;;;;;5076682;28;20468;-74
2021/07/17 07:37:43;;;;;;;16.17;9.83;;;22.40;79.70;;;;;;5076738;28;20456;-73
2021/07/17 07:40:12;;;;;;;13.20;8.90;;;22.30;79.30;;;;;;5076781;28;20445;-75
2021/07/17 07:42:38;;;;;;;21.57;9.70;;;22.30;80.20;;;;;;5076603;28;20428;-71
2021/07/17 07:45:06;;;;;;;16.60;9.20;;;22.40;80.10;;;;;;5077891;28;20467;-71
2021/07/17 07:47:33;;;;;;;17.73;9.50;;;22.40;80.10;;;;;;5076255;28;20965;-71
2021/07/17 07:50:00;;;;;;;23.93;10.17;;;22.50;80.00;;;;;;5076327;28;20471;-71
2021/07/17 07:52:27;;;;;;;19.97;10.30;;;22.50;79.90;;;;;;5076078;28;20988;-71
2021/07/17 07:54:54;;;;;;;19.43;10.60;;;22.50;79.90;;;;;;5076346;28;20461;-71
2021/07/17 07:57:23;;;;;;;13.10;9.93;;;22.60;79.90;;;;;;5077445;28;20444;-72
2021/07/17 07:59:53;;;;;;;20.53;10.37;;;22.60;79.70;;;;;;5088604;28;20441;-72
2021/07/17 08:02:20;;;;;;;27.00;13.40;;;22.50;79.50;;;;;;5077174;28;20432;-72
2021/07/17 08:04:46;;;;;;;29.53;12.53;;;22.50;79.60;;;;;;5076173;28;20475;-72
2021/07/17 08:07:13;;;;;;;25.53;12.80;;;22.50;79.50;;;;;;5075917;28;20971;-72
2021/07/17 08:09:40;;;;;;;16.23;11.03;;;22.60;79.30;;;;;;5076188;28;20456;-72
2021/07/17 08:12:07;;;;;;;45.40;13.23;;;22.70;79.50;;;;;;5076294;28;20472;-72
2021/07/17 08:14:35;;;;;;;24.20;10.50;;;22.70;78.80;;;;;;5076042;28;20832;-72
2021/07/17 08:17:04;;;;;;;26.17;11.17;;;22.80;79.00;;;;;;5076060;28;20471;-72
2021/07/17 08:19:30;;;;;;;22.30;10.23;;;22.90;78.90;;;;;;5076022;28;20852;-72
2021/07/17 08:21:57;;;;;;;30.53;10.40;;;22.90;78.20;;;;;;5075980;28;20437;-72
2021/07/17 08:24:24;;;;;;;26.87;10.03;;;22.90;78.80;;;;;;5074235;28;20926;-72
2021/07/17 08:26:51;;;;;;;17.27;9.00;;;23.10;79.10;;;;;;5075876;28;20448;-72
2021/07/17 08:29:17;;;;;;;15.50;10.10;;;23.20;78.70;;;;;;5076091;28;20448;-72
2021/07/17 08:31:45;;;;;;;17.77;10.03;;;23.40;78.10;;;;;;5075777;28;20473;-72
2021/07/17 08:34:12;;;;;;;18.20;9.27;;;23.50;76.90;;;;;;5075692;28;20444;-72
2021/07/17 08:36:39;;;;;;;23.77;9.43;;;23.60;76.30;;;;;;5076113;28;20455;-72
2021/07/17 08:39:06;;;;;;;17.93;8.80;;;23.70;77.00;;;;;;5075780;28;20437;-72
2021/07/17 08:41:34;;;;;;;34.93;10.37;;;24.00;76.20;;;;;;5076381;28;20440;-72
2021/07/17 08:44:02;;;;;;;34.87;11.40;;;24.20;75.50;;;;;;5076323;28;20429;-72
2021/07/17 08:46:29;;;;;;;20.73;8.50;;;24.40;74.70;;;;;;5077333;28;20473;-72
2021/07/17 08:48:57;;;;;;;19.50;8.47;;;24.70;74.40;;;;;;5076531;28;20449;-72
2021/07/17 08:51:24;;;;;;;18.67;8.10;;;24.80;73.40;;;;;;5075600;28;20476;-72
2021/07/17 08:53:53;;;;;;;23.63;10.03;;;24.90;72.30;;;;;;5076082;28;20448;-72
2021/07/17 08:56:20;;;;;;;18.00;8.80;;;25.00;71.70;;;;;;5076083;28;20464;-72
2021/07/17 08:58:48;;;;;;;18.00;10.03;;;25.10;71.10;;;;;;5075929;28;20452;-72
2021/07/17 09:01:15;;;;;;;18.40;10.50;;;25.00;69.60;;;;;;5076004;28;20436;-71
2021/07/17 09:03:42;;;;;;;27.90;13.87;;;25.10;70.80;;;;;;5076114;28;20444;-71
2021/07/17 09:06:10;;;;;;;22.53;13.20;;;25.10;70.10;;;;;;5075220;28;20467;-71
2021/07/17 09:08:37;;;;;;;15.97;10.90;;;25.30;68.90;;;;;;5075280;28;20444;-71
2021/07/17 09:11:03;;;;;;;10.53;9.23;;;25.50;70.00;;;;;;5074645;28;20429;-72
2021/07/17 09:13:32;;;;;;;18.43;8.17;;;25.60;67.10;;;;;;5075236;28;20440;-72
2021/07/17 09:16:05;;;;;;;31.07;12.10;;;25.70;67.50;;;;;;5074875;28;20469;-72
2021/07/17 09:18:37;;;;;;;41.93;13.83;;;25.70;67.50;;;;;;5075077;28;20441;-72
2021/07/17 09:21:07;;;;;;;21.93;12.80;;;25.70;66.90;;;;;;5074864;28;20440;-71
2021/07/17 09:23:38;;;;;;;21.03;12.60;;;25.80;68.30;;;;;;5074831;28;20438;-71
2021/07/17 09:26:19;;;;;;;14.40;10.23;;;26.00;66.60;;;;;;5074686;28;20471;-72
2021/07/17 09:28:56;;;;;;;12.00;8.60;;;26.10;65.70;;;;;;5074652;28;20428;-72
2021/07/17 09:31:23;;;;;;;24.40;10.03;;;26.10;66.40;;;;;;5074567;28;20460;-72
2021/07/17 09:33:51;;;;;;;18.07;9.87;;;25.90;65.70;;;;;;5074677;28;20449;-72
2021/07/17 09:36:18;;;;;;;12.77;10.10;;;25.80;66.80;;;;;;5073978;28;20476;-72
2021/07/17 09:38:52;;;;;;;13.57;10.63;;;26.10;67.30;;;;;;5074552;28;20433;-72
2021/07/17 09:41:20;;;;;;;20.47;10.27;;;26.20;65.60;;;;;;5074172;28;20429;-72
2021/07/17 09:43:57;;;;;;;20.93;11.30;;;26.50;63.60;;;;;;5074038;28;20793;-72
2021/07/17 09:46:26;;;;;;;20.40;12.23;;;26.90;64.90;;;;;;5074637;28;20464;-72
2021/07/17 09:48:55;;;;;;;26.37;11.93;;;27.20;63.50;;;;;;5074158;28;21016;-71
2021/07/17 09:51:24;;;;;;;16.63;11.30;;;27.60;59.10;;;;;;5073974;28;20460;-72
2021/07/17 09:53:54;;;;;;;17.67;10.60;;;27.90;58.90;;;;;;5074075;28;20448;-71
2021/07/17 09:56:22;;;;;;;177.20;21.40;;;28.30;58.10;;;;;;5073993;28;20472;-72
2021/07/17 09:58:50;;;;;;;29.13;9.70;;;28.70;60.60;;;;;;5073905;28;20448;-72
2021/07/17 10:01:31;;;;;;;36.67;9.90;;;29.00;57.50;;;;;;5074114;28;20440;-72
2021/07/17 10:04:08;;;;;;;24.77;8.97;;;29.30;57.90;;;;;;5073976;28;20425;-72
2021/07/17 10:06:42;;;;;;;96.40;15.03;;;29.50;55.80;;;;;;5073980;28;20420;-71
2021/07/17 10:09:28;;;;;;;90.13;14.60;;;29.40;55.50;;;;;;5073772;28;20425;-72
2021/07/17 10:11:58;;;;;;;45.80;12.20;;;29.50;56.10;;;;;;5073603;28;20475;-72
2021/07/17 10:14:27;;;;;;;51.50;11.17;;;29.70;56.30;;;;;;5073855;28;20429;-72
2021/07/17 10:16:55;;;;;;;79.43;14.80;;;30.10;55.30;;;;;;5073760;28;20444;-72
2021/07/17 10:19:24;;;;;;;64.27;12.30;;;30.50;53.50;;;;;;5073877;28;20420;-72
2021/07/17 10:21:51;;;;;;;26.67;8.17;;;30.90;53.30;;;;;;5073573;28;20425;-73
2021/07/17 10:24:19;;;;;;;18.03;8.37;;;31.20;52.00;;;;;;5073305;28;20848;-72
2021/07/17 10:26:48;;;;;;;41.70;10.50;;;31.30;50.10;;;;;;5073133;28;20830;-72
2021/07/17 10:29:16;;;;;;;24.37;8.77;;;31.40;51.40;;;;;;5073574;28;20441;-72
2021/07/17 10:31:44;;;;;;;31.10;8.50;;;31.60;49.30;;;;;;5073321;28;20511;-72
2021/07/17 10:34:11;;;;;;;36.33;9.20;;;32.00;50.10;;;;;;5073415;28;20442;-73
2021/07/17 10:36:53;;;;;;;22.20;7.70;;;32.50;48.30;;;;;;5073376;28;20455;-73
2021/07/17 10:39:27;;;;;;;30.07;8.30;;;33.00;45.60;;;;;;5073410;28;20467;-73
2021/07/17 10:41:54;;;;;;;34.77;8.00;;;33.20;46.30;;;;;;5074253;28;20429;-77
2021/07/17 10:44:40;;;;;;;47.33;9.70;;;33.70;45.70;;;;;;5079368;28;20459;-78
2021/07/17 10:47:07;;;;;;;42.53;8.03;;;34.10;44.20;;;;;;5076764;28;20933;-77
2021/07/17 10:49:36;;;;;;;19.53;6.63;;;34.40;43.20;;;;;;5077118;28;20564;-78
2021/07/17 10:52:03;;;;;;;24.47;6.10;;;34.50;42.10;;;;;;5076727;28;20514;-77
2021/07/17 10:54:32;;;;;;;23.33;7.03;;;34.80;41.00;;;;;;5078351;28;20464;-77
2021/07/17 10:56:58;;;;;;;13.53;5.70;;;35.00;41.10;;;;;;5080586;28;20474;-78
2021/07/17 10:59:45;;;;;;;7.43;4.83;;;35.40;41.10;;;;;;5078482;28;20461;-77
2021/07/17 11:02:13;;;;;;;18.30;5.33;;;35.90;37.50;;;;;;5074805;28;20964;-75
2021/07/17 11:04:55;;;;;;;11.50;5.10;;;36.20;38.10;;;;;;5073106;28;20483;-74
2021/07/17 11:07:40;;;;;;;11.93;4.77;;;36.50;36.70;;;;;;5073210;28;20538;-75
2021/07/17 11:10:20;;;;;;;14.20;5.00;;;36.90;36.70;;;;;;5073211;28;20428;-75
2021/07/17 11:12:58;;;;;;;18.83;5.87;;;37.20;36.60;;;;;;5073144;28;20472;-74
2021/07/17 11:15:56;;;;;;;14.20;4.80;;;37.80;34.60;;;;;;5073148;28;20228;-75
2021/07/17 11:18:37;;;;;;;23.73;5.33;;;38.10;33.70;;;;;;5066396;28;20686;-76
2021/07/17 11:21:07;;;;;;;13.00;4.32;;;38.20;34.30;;;;;;5073070;28;20202;-76
2021/07/17 11:23:37;;;;;;;33.60;6.17;;;38.30;32.80;;;;;;5073316;28;20198;-75
2021/07/17 11:26:07;;;;;;;32.83;5.93;;;38.40;33.60;;;;;;5072909;28;20217;-75
2021/07/17 11:31:53;;;;;;;33.77;5.97;;;38.40;33.50;;;;;;5072757;28;20733;-74
2021/07/17 11:34:51;;;;;;;24.90;5.07;;;38.30;33.20;;;;;;5072940;28;20193;-72
2021/07/17 11:37:31;;;;;;;9.68;3.90;;;38.40;33.70;;;;;;5072970;28;20190;-72
2021/07/17 11:40:02;;;;;;;5.38;3.28;;;38.70;33.10;;;;;;5073004;28;20187;-72
2021/07/17 11:42:36;;;;;;;7.53;3.83;;;39.20;33.00;;;;;;5073011;28;20194;-76
2021/07/17 11:45:03;;;;;;;7.75;3.83;;;38.80;31.60;;;;;;5073023;28;20244;-77
2021/07/17 11:47:31;;;;;;;5.30;4.10;;;38.90;30.90;;;;;;5072909;28;20182;-76
2021/07/17 11:50:00;;;;;;;6.07;3.63;;;38.40;32.20;;;;;;5072474;28;20214;-76
2021/07/17 11:52:29;;;;;;;5.30;3.33;;;38.00;33.00;;;;;;5076482;28;20332;-76
2021/07/17 11:54:58;;;;;;;4.83;3.17;;;37.40;34.30;;;;;;5072788;28;20225;-76
2021/07/17 11:57:28;;;;;;;6.53;3.47;;;37.20;34.00;;;;;;5077780;28;20202;-77
2021/07/17 12:00:04;;;;;;;9.57;3.77;;;37.30;34.00;;;;;;5080875;28;20202;-76
2021/07/17 12:02:34;;;;;;;5.30;3.43;;;37.40;32.80;;;;;;5076463;28;20189;-75
2021/07/17 12:05:06;;;;;;;5.33;3.57;;;37.20;34.90;;;;;;5076249;28;20275;-75
2021/07/17 12:07:33;;;;;;;4.00;3.40;;;38.00;33.30;;;;;;5082412;28;20186;-78
2021/07/17 12:10:02;;;;;;;9.37;4.07;;;37.80;32.40;;;;;;5076286;28;20298;-75
2021/07/17 12:12:31;;;;;;;6.63;3.67;;;37.80;33.90;;;;;;5076546;28;20202;-75
2021/07/17 12:15:22;;;;;;;4.87;3.20;;;37.20;34.70;;;;;;5086213;28;20224;-78
2021/07/17 12:17:55;;;;;;;8.37;3.33;;;37.30;34.40;;;;;;5080428;28;20201;-78
2021/07/17 12:20:24;;;;;;;8.03;3.20;;;37.90;33.70;;;;;;5085019;28;20182;-73
2021/07/17 12:22:56;;;;;;;37.65;6.22;;;38.00;33.80;;;;;;5076031;28;20205;-73
2021/07/17 12:25:25;;;;;;;10.00;3.20;;;38.70;33.20;;;;;;5075949;28;20226;-73
2021/07/17 12:28:00;;;;;;;4.90;3.30;;;39.50;30.80;;;;;;5075882;28;20206;-74
2021/07/17 12:30:31;;;;;;;9.15;4.25;;;40.00;29.70;;;;;;5075895;28;20185;-74
2021/07/17 12:33:22;;;;;;;15.00;4.55;;;40.30;30.00;;;;;;5075765;28;20217;-74
2021/07/17 12:35:51;;;;;;;6.35;3.00;;;40.50;28.10;;;;;;5075365;28;20229;-74
2021/07/17 12:38:25;;;;;;;5.43;3.20;;;40.50;29.00;;;;;;5075430;28;20575;-74
2021/07/17 12:40:59;;;;;;;11.52;3.72;;;40.50;29.20;;;;;;5075505;28;20650;-74